Time;durP1;ratioP1;P1;durP2;ratioP2;P2;SDS_P1;SDS_P2;PMS_P1;PMS_P2;Temp;Humidity;BMP_temperature;BMP_pressure;BME280_temperature;BME280_humidity;BME280_pressure;Samples;Min_cycle;Max_cycle;Signal;HPM_P1;HPM_P2
2023/03/26 00:01:23;;;;;;;20.17;13.82;;;;;;;;;;5016463;28;20205;-60
2023/03/26 00:03:54;;;;;;;21.33;13.32;;;;;;;;;;5032970;28;20291;-59
2023/03/26 00:06:37;;;;;;;22.55;14.02;;;;;;;;;;5033676;28;20205;-60
2023/03/26 00:09:07;;;;;;;21.42;14.32;;;;;;;;;;5033494;28;20216;-60
2023/03/26 00:11:34;;;;;;;23.38;14.73;;;;;;;;;;5033363;28;20232;-60
2023/03/26 00:14:02;;;;;;;21.30;13.95;;;;;;;;;;5033007;28;20665;-60
2023/03/26 00:16:30;;;;;;;25.02;15.18;;;;;;;;;;5033421;28;20212;-60
2023/03/26 00:18:58;;;;;;;23.88;15.20;;;;;;;;;;5033347;28;20227;-61
2023/03/26 00:21:29;;;;;;;23.30;13.82;;;;;;;;;;5033328;28;20204;-60
2023/03/26 00:24:08;;;;;;;22.08;14.93;;;;;;;;;;5033527;28;20614;-60
2023/03/26 00:26:39;;;;;;;23.92;13.80;;;;;;;;;;5033645;28;20205;-60
2023/03/26 00:29:08;;;;;;;21.52;13.75;;;;;;;;;;5033510;28;20545;-60
2023/03/26 00:31:39;;;;;;;28.23;15.10;;;;;;;;;;5033107;28;20233;-60
2023/03/26 00:34:09;;;;;;;20.90;12.55;;;;;;;;;;5033190;28;20205;-60
2023/03/26 00:36:36;;;;;;;22.73;14.77;;;;;;;;;;5033416;28;20216;-60
2023/03/26 00:39:04;;;;;;;18.20;12.48;;;;;;;;;;5033319;28;20196;-60
2023/03/26 00:41:35;;;;;;;17.98;12.02;;;;;;;;;;5033135;28;20209;-60
2023/03/26 00:44:03;;;;;;;18.73;12.68;;;;;;;;;;5033452;28;20191;-60
2023/03/26 00:46:31;;;;;;;20.55;12.80;;;;;;;;;;5032983;28;20684;-60
2023/03/26 00:48:59;;;;;;;17.88;12.07;;;;;;;;;;5032996;28;20203;-60
2023/03/26 00:51:27;;;;;;;22.88;13.68;;;;;;;;;;5015557;28;20255;-60
2023/03/26 00:53:55;;;;;;;32.90;14.90;;;;;;;;;;5032988;28;20201;-60
2023/03/26 00:56:22;;;;;;;42.08;21.05;;;;;;;;;;5015531;28;20224;-60
2023/03/26 00:58:50;;;;;;;23.70;14.45;;;;;;;;;;5015598;28;20205;-60
2023/03/26 01:01:27;;;;;;;22.30;13.00;;;;;;;;;;5029052;28;20236;-60
2023/03/26 01:03:59;;;;;;;22.67;13.23;;;;;;;;;;5020180;28;20221;-60
2023/03/26 01:06:40;;;;;;;20.48;13.88;;;;;;;;;;5019338;28;20216;-60
2023/03/26 01:09:17;;;;;;;25.00;13.85;;;;;;;;;;5001385;28;20228;-59
2023/03/26 01:11:46;;;;;;;27.38;14.25;;;;;;;;;;5026949;28;20225;-60
2023/03/26 01:14:18;;;;;;;28.23;14.77;;;;;;;;;;5011765;28;20225;-60
2023/03/26 01:16:51;;;;;;;43.05;24.90;;;;;;;;;;4998625;28;20233;-60
2023/03/26 01:19:38;;;;;;;25.48;14.27;;;;;;;;;;4998556;28;20229;-60
2023/03/26 01:22:09;;;;;;;20.77;13.60;;;;;;;;;;5015571;28;20694;-60
2023/03/26 01:24:38;;;;;;;17.70;12.52;;;;;;;;;;5016208;28;20256;-60
2023/03/26 01:27:20;;;;;;;19.63;11.57;;;;;;;;;;5030526;28;20821;-59
2023/03/26 01:29:47;;;;;;;19.70;11.93;;;;;;;;;;5015685;28;20255;-60
2023/03/26 01:32:23;;;;;;;18.85;12.20;;;;;;;;;;5017286;28;20610;-60
2023/03/26 01:34:50;;;;;;;24.83;12.52;;;;;;;;;;5035816;28;20232;-60
2023/03/26 01:37:29;;;;;;;32.38;16.77;;;;;;;;;;5035144;28;20589;-60
2023/03/26 01:40:05;;;;;;;24.65;15.05;;;;;;;;;;5035548;28;20573;-59
2023/03/26 01:42:38;;;;;;;19.48;13.05;;;;;;;;;;5002658;28;20224;-60
2023/03/26 01:45:13;;;;;;;16.83;10.98;;;;;;;;;;5017541;28;20278;-59
2023/03/26 01:47:41;;;;;;;18.38;11.40;;;;;;;;;;5034448;28;20228;-60
2023/03/26 01:50:09;;;;;;;18.10;11.40;;;;;;;;;;5017873;28;20248;-60
2023/03/26 01:52:37;;;;;;;23.45;11.10;;;;;;;;;;5017253;28;20255;-60
2023/03/26 01:55:07;;;;;;;29.35;12.82;;;;;;;;;;5035046;28;20647;-59
2023/03/26 01:57:38;;;;;;;24.58;14.93;;;;;;;;;;5034127;28;20220;-60
2023/03/26 02:00:20;;;;;;;19.63;12.57;;;;;;;;;;5034842;28;20233;-59
2023/03/26 02:03:27;;;;;;;16.80;11.25;;;;;;;;;;5035218;28;20222;-60
2023/03/26 02:06:16;;;;;;;16.45;9.98;;;;;;;;;;5017321;28;20697;-60
2023/03/26 02:08:54;;;;;;;25.42;11.85;;;;;;;;;;5050006;28;20232;-61
2023/03/26 02:11:21;;;;;;;24.17;11.65;;;;;;;;;;5000921;28;20679;-60
2023/03/26 02:13:49;;;;;;;27.20;11.90;;;;;;;;;;5016739;28;20664;-60
2023/03/26 02:16:18;;;;;;;118.75;51.55;;;;;;;;;;5049582;28;20286;-60
2023/03/26 02:18:50;;;;;;;20.55;11.90;;;;;;;;;;5034620;28;20236;-60
2023/03/26 02:21:20;;;;;;;16.08;10.05;;;;;;;;;;5034686;28;20224;-60
2023/03/26 02:23:56;;;;;;;15.57;10.18;;;;;;;;;;5034658;28;20252;-60
2023/03/26 02:26:24;;;;;;;14.77;9.13;;;;;;;;;;5033698;28;20635;-60
2023/03/26 02:29:05;;;;;;;15.88;9.82;;;;;;;;;;5032914;28;20721;-59
2023/03/26 02:31:34;;;;;;;15.00;9.90;;;;;;;;;;5016877;28;20268;-60
2023/03/26 02:34:02;;;;;;;16.30;9.45;;;;;;;;;;5034201;28;20225;-59
2023/03/26 02:36:32;;;;;;;90.40;39.90;;;;;;;;;;5016814;28;20580;-60
2023/03/26 02:39:03;;;;;;;15.77;9.63;;;;;;;;;;5016394;28;20548;-60
2023/03/26 02:41:34;;;;;;;15.50;9.45;;;;;;;;;;5034578;28;20220;-60
2023/03/26 02:44:05;;;;;;;21.35;10.98;;;;;;;;;;5016272;28;20312;-59
2023/03/26 02:46:51;;;;;;;15.85;9.43;;;;;;;;;;5034190;28;20271;-60
2023/03/26 02:49:37;;;;;;;20.42;10.00;;;;;;;;;;5034060;28;20220;-60
2023/03/26 02:52:05;;;;;;;15.88;9.32;;;;;;;;;;5049337;28;20233;-60
2023/03/26 02:54:34;;;;;;;17.75;9.57;;;;;;;;;;5033837;28;20233;-60
2023/03/26 02:57:15;;;;;;;37.05;19.13;;;;;;;;;;5034014;28;20274;-60
2023/03/26 03:00:15;;;;;;;18.65;10.43;;;;;;;;;;5031573;28;20587;-60
2023/03/26 03:02:46;;;;;;;16.85;9.68;;;;;;;;;;5033510;28;20228;-60
2023/03/26 03:05:32;;;;;;;16.55;9.85;;;;;;;;;;5033855;28;20220;-60
2023/03/26 03:08:19;;;;;;;16.27;9.35;;;;;;;;;;5033272;28;20587;-60
2023/03/26 03:11:17;;;;;;;23.58;11.27;;;;;;;;;;5016016;28;20238;-59
2023/03/26 03:13:45;;;;;;;18.67;9.98;;;;;;;;;;5015818;28;20254;-60
2023/03/26 03:16:22;;;;;;;146.75;63.03;;;;;;;;;;5015935;28;20225;-60
2023/03/26 03:18:53;;;;;;;18.65;11.15;;;;;;;;;;5033438;28;20311;-60
2023/03/26 03:21:23;;;;;;;19.15;11.75;;;;;;;;;;5015830;28;20235;-60
2023/03/26 03:23:50;;;;;;;16.20;9.63;;;;;;;;;;5033698;28;20308;-60
2023/03/26 03:26:20;;;;;;;14.13;8.98;;;;;;;;;;5032267;28;20243;-60
2023/03/26 03:28:54;;;;;;;14.95;8.98;;;;;;;;;;5015434;28;20224;-60
2023/03/26 03:31:23;;;;;;;23.25;10.73;;;;;;;;;;5033029;28;20240;-60
2023/03/26 03:33:52;;;;;;;20.17;9.35;;;;;;;;;;5015999;28;20228;-60
2023/03/26 03:36:21;;;;;;;37.63;18.85;;;;;;;;;;5015799;28;20236;-60
2023/03/26 03:39:01;;;;;;;22.27;11.05;;;;;;;;;;5015328;28;20227;-59
2023/03/26 03:41:31;;;;;;;15.50;9.18;;;;;;;;;;5032014;28;20225;-60
2023/03/26 03:44:01;;;;;;;14.88;9.02;;;;;;;;;;5014872;28;20611;-60
2023/03/26 03:46:31;;;;;;;15.18;8.82;;;;;;;;;;5015609;28;20232;-60
2023/03/26 03:48:58;;;;;;;12.05;8.00;;;;;;;;;;5031481;28;20696;-60
2023/03/26 03:51:34;;;;;;;14.73;8.68;;;;;;;;;;5048458;28;20282;-60
2023/03/26 03:54:03;;;;;;;13.57;8.18;;;;;;;;;;5032440;28;20705;-59
2023/03/26 03:56:51;;;;;;;18.75;10.18;;;;;;;;;;5032731;28;20216;-60
2023/03/26 03:59:32;;;;;;;15.02;8.18;;;;;;;;;;5031052;28;20583;-60
2023/03/26 04:02:02;;;;;;;13.70;8.13;;;;;;;;;;5031503;28;20589;-60
2023/03/26 04:04:36;;;;;;;15.02;7.88;;;;;;;;;;5047986;28;20232;-60
2023/03/26 04:07:06;;;;;;;13.93;8.68;;;;;;;;;;5032462;28;20729;-59
2023/03/26 04:09:53;;;;;;;131.68;52.03;;;;;;;;;;5031424;28;20256;-60
2023/03/26 04:12:23;;;;;;;24.25;12.18;;;;;;;;;;5047570;28;20639;-58
2023/03/26 04:15:01;;;;;;;18.00;10.18;;;;;;;;;;5031234;28;20259;-59
2023/03/26 04:17:30;;;;;;;14.70;9.15;;;;;;;;;;5014973;28;20590;-60
2023/03/26 04:20:04;;;;;;;14.93;9.38;;;;;;;;;;5032307;28;20233;-60
2023/03/26 04:22:33;;;;;;;14.90;9.30;;;;;;;;;;5032540;28;20246;-60
2023/03/26 04:25:04;;;;;;;14.90;9.38;;;;;;;;;;5014423;28;20288;-60
2023/03/26 04:27:40;;;;;;;14.90;10.27;;;;;;;;;;5047421;28;20227;-60
2023/03/26 04:30:19;;;;;;;24.58;14.00;;;;;;;;;;5045396;28;20233;-59
2023/03/26 04:32:59;;;;;;;16.40;10.70;;;;;;;;;;5016577;28;20228;-60
2023/03/26 04:35:34;;;;;;;17.48;9.85;;;;;;;;;;5014582;28;20712;-60
2023/03/26 04:38:05;;;;;;;16.02;10.35;;;;;;;;;;5047926;28;20294;-60
2023/03/26 04:40:37;;;;;;;13.68;9.45;;;;;;;;;;5030105;28;20232;-60
2023/03/26 04:43:23;;;;;;;17.08;10.55;;;;;;;;;;5031821;28;20221;-60
2023/03/26 04:46:26;;;;;;;22.83;10.27;;;;;;;;;;5009706;28;20233;-59
2023/03/26 04:49:08;;;;;;;15.23;9.43;;;;;;;;;;5010149;28;20604;-60
2023/03/26 04:51:37;;;;;;;26.85;13.90;;;;;;;;;;5013449;28;20238;-60
2023/03/26 04:54:15;;;;;;;22.25;13.05;;;;;;;;;;4995959;28;20698;-58
2023/03/26 04:56:52;;;;;;;18.40;10.50;;;;;;;;;;4998518;28;20307;-59
2023/03/26 04:59:34;;;;;;;15.75;9.10;;;;;;;;;;4997142;28;20228;-60
2023/03/26 05:02:05;;;;;;;15.90;9.40;;;;;;;;;;4997130;28;20208;-60
2023/03/26 05:04:45;;;;;;;19.35;10.02;;;;;;;;;;4997218;28;20208;-58
2023/03/26 05:07:17;;;;;;;19.42;10.25;;;;;;;;;;4997115;28;20198;-59
2023/03/26 05:09:48;;;;;;;32.65;14.20;;;;;;;;;;5012003;28;20208;-60
2023/03/26 05:12:21;;;;;;;15.13;9.43;;;;;;;;;;4994900;28;20287;-60
2023/03/26 05:15:12;;;;;;;15.35;8.65;;;;;;;;;;5002859;28;20221;-58
2023/03/26 05:17:49;;;;;;;13.68;8.73;;;;;;;;;;5011888;28;20197;-60
2023/03/26 05:20:29;;;;;;;13.57;8.50;;;;;;;;;;5022182;28;20301;-60
2023/03/26 05:22:56;;;;;;;17.20;9.10;;;;;;;;;;5016667;28;20205;-60
2023/03/26 05:25:30;;;;;;;20.02;9.10;;;;;;;;;;5052162;28;20243;-61
2023/03/26 05:28:00;;;;;;;17.42;9.40;;;;;;;;;;5045472;28;20311;-61
2023/03/26 05:30:42;;;;;;;113.00;52.22;;;;;;;;;;5014275;28;20732;-59
2023/03/26 05:33:09;;;;;;;15.73;8.95;;;;;;;;;;5027466;28;20228;-60
2023/03/26 05:35:45;;;;;;;15.05;8.00;;;;;;;;;;5050811;28;20228;-60
2023/03/26 05:38:12;;;;;;;15.23;8.70;;;;;;;;;;5037827;28;20221;-55
2023/03/26 05:40:39;;;;;;;18.58;11.15;;;;;;;;;;5014451;28;20287;-60
2023/03/26 05:43:07;;;;;;;34.08;23.73;;;;;;;;;;5046119;28;20790;-60
2023/03/26 05:46:01;;;;;;;18.40;11.02;;;;;;;;;;5030911;28;20229;-61
2023/03/26 05:48:31;;;;;;;15.23;9.20;;;;;;;;;;5017259;28;20221;-60
2023/03/26 05:50:59;;;;;;;21.95;12.30;;;;;;;;;;5034139;28;20576;-59
2023/03/26 05:53:28;;;;;;;16.90;9.77;;;;;;;;;;5034728;28;20240;-60
2023/03/26 05:56:14;;;;;;;13.18;8.02;;;;;;;;;;5019967;28;20224;-60
2023/03/26 05:58:59;;;;;;;13.85;8.95;;;;;;;;;;5034920;28;20227;-60
2023/03/26 06:01:46;;;;;;;13.63;7.88;;;;;;;;;;5033783;28;20286;-59
2023/03/26 06:04:32;;;;;;;12.88;7.32;;;;;;;;;;5035035;28;22042;-60
2023/03/26 06:07:38;;;;;;;15.07;8.15;;;;;;;;;;4933763;29;20236;-60
2023/03/26 06:10:12;;;;;;;52.03;23.77;;;;;;;;;;4919669;29;20228;-59
2023/03/26 06:12:45;;;;;;;47.88;22.73;;;;;;;;;;4980327;28;20241;-60
2023/03/26 06:15:12;;;;;;;15.45;10.55;;;;;;;;;;5013711;28;20324;-58
2023/03/26 06:18:00;;;;;;;19.42;13.70;;;;;;;;;;5014545;28;20233;-60
2023/03/26 06:20:50;;;;;;;16.08;10.13;;;;;;;;;;5030615;28;20221;-60
2023/03/26 06:23:34;;;;;;;16.73;10.18;;;;;;;;;;4997003;28;20580;-60
2023/03/26 06:26:04;;;;;;;16.33;10.55;;;;;;;;;;5014466;28;20225;-60
2023/03/26 06:28:48;;;;;;;19.23;10.07;;;;;;;;;;4997156;28;20221;-60
2023/03/26 06:31:34;;;;;;;19.27;9.35;;;;;;;;;;5014551;28;20244;-61
2023/03/26 06:34:15;;;;;;;17.67;10.75;;;;;;;;;;5013352;28;20225;-59
2023/03/26 06:36:42;;;;;;;14.45;7.45;;;;;;;;;;5038683;28;20704;-59
2023/03/26 06:39:10;;;;;;;13.48;8.90;;;;;;;;;;5049810;28;20225;-61
2023/03/26 06:41:46;;;;;;;17.27;8.77;;;;;;;;;;5016095;28;20228;-60
2023/03/26 06:44:37;;;;;;;22.65;11.25;;;;;;;;;;5034661;28;20232;-58
2023/03/26 06:47:23;;;;;;;16.65;8.38;;;;;;;;;;5030967;28;20713;-57
2023/03/26 06:50:03;;;;;;;43.38;17.60;;;;;;;;;;5032985;28;20217;-58
2023/03/26 06:52:37;;;;;;;16.42;8.10;;;;;;;;;;5015052;28;20254;-59
2023/03/26 06:55:28;;;;;;;101.85;41.42;;;;;;;;;;5032137;28;20263;-59
2023/03/26 06:58:31;;;;;;;43.08;21.73;;;;;;;;;;4970852;28;20214;-60
2023/03/26 07:01:17;;;;;;;13.73;7.63;;;;;;;;;;5023053;28;20227;-58
2023/03/26 07:04:03;;;;;;;22.45;10.07;;;;;;;;;;5031103;28;20227;-59
2023/03/26 07:06:49;;;;;;;11.80;6.22;;;;;;;;;;5031448;28;20224;-59
2023/03/26 07:09:34;;;;;;;7.63;4.00;;;;;;;;;;5013565;28;20596;-60
2023/03/26 07:12:20;;;;;;;13.30;8.13;;;;;;;;;;5022432;28;20236;-59
2023/03/26 07:15:13;;;;;;;16.15;6.60;;;;;;;;;;5029932;28;20734;-58
2023/03/26 07:18:05;;;;;;;33.63;16.50;;;;;;;;;;5042100;28;20208;-59
2023/03/26 07:20:35;;;;;;;15.45;9.07;;;;;;;;;;5030723;28;20276;-60
2023/03/26 07:23:03;;;;;;;22.60;11.38;;;;;;;;;;5014580;28;20236;-57
2023/03/26 07:25:43;;;;;;;11.23;5.72;;;;;;;;;;5013533;28;20217;-59
2023/03/26 07:28:46;;;;;;;10.68;5.75;;;;;;;;;;5011380;28;20266;-59
2023/03/26 07:32:06;;;;;;;10.55;5.25;;;;;;;;;;5018665;28;20224;-59
2023/03/26 07:35:01;;;;;;;21.85;10.32;;;;;;;;;;5012347;28;20497;-59
2023/03/26 07:37:58;;;;;;;21.20;10.82;;;;;;;;;;5032146;28;20227;-58
2023/03/26 07:40:45;;;;;;;20.13;8.07;;;;;;;;;;5033891;28;20216;-59
2023/03/26 07:43:48;;;;;;;17.25;7.00;;;;;;;;;;5012210;28;20287;-59
2023/03/26 07:46:35;;;;;;;19.45;9.20;;;;;;;;;;5033771;28;20201;-60
2023/03/26 07:49:22;;;;;;;22.20;9.30;;;;;;;;;;5033532;28;20200;-59
2023/03/26 07:52:19;;;;;;;23.70;9.65;;;;;;;;;;4972531;28;20703;-59
2023/03/26 07:55:16;;;;;;;16.05;7.55;;;;;;;;;;4971852;28;20311;-59
2023/03/26 07:58:33;;;;;;;53.63;24.17;;;;;;;;;;4972367;28;20203;-60
2023/03/26 08:01:35;;;;;;;11.93;6.35;;;;;;;;;;4965525;28;20206;-59
2023/03/26 08:04:30;;;;;;;10.00;5.60;;;;;;;;;;4956405;28;20706;-60
2023/03/26 08:07:38;;;;;;;43.45;25.08;;;;;;;;;;4942283;28;20586;-59
2023/03/26 08:10:41;;;;;;;24.60;14.75;;;;;;;;;;4971267;28;20265;-59
2023/03/26 08:13:51;;;;;;;18.83;9.45;;;;;;;;;;4971779;28;20238;-59
2023/03/26 08:16:34;;;;;;;25.60;13.48;;;;;;;;;;4956193;28;20231;-59
2023/03/26 08:19:27;;;;;;;20.05;10.10;;;;;;;;;;4971058;28;20183;-60
2023/03/26 08:21:58;;;;;;;12.48;5.97;;;;;;;;;;4934409;28;20206;-60
2023/03/26 08:24:25;;;;;;;10.35;6.40;;;;;;;;;;4971822;28;20198;-59
2023/03/26 08:27:20;;;;;;;11.18;5.13;;;;;;;;;;4971896;28;20206;-60
2023/03/26 08:29:50;;;;;;;13.30;8.50;;;;;;;;;;5008329;28;20199;-60
2023/03/26 08:32:18;;;;;;;14.32;7.63;;;;;;;;;;5032947;28;20204;-59
2023/03/26 08:34:45;;;;;;;9.80;5.72;;;;;;;;;;5033193;28;20201;-59
2023/03/26 08:37:13;;;;;;;26.23;11.65;;;;;;;;;;5015522;28;20217;-59
2023/03/26 08:39:41;;;;;;;20.38;10.93;;;;;;;;;;5032126;28;20220;-59
2023/03/26 08:42:17;;;;;;;9.77;5.50;;;;;;;;;;5031938;28;20223;-59
2023/03/26 08:44:58;;;;;;;10.68;6.80;;;;;;;;;;5015813;28;20208;-60
2023/03/26 08:47:34;;;;;;;8.73;4.85;;;;;;;;;;5032357;28;20211;-59
2023/03/26 08:50:13;;;;;;;12.40;7.30;;;;;;;;;;5032662;28;20227;-60
2023/03/26 08:52:56;;;;;;;18.90;7.50;;;;;;;;;;5033245;28;20236;-59
2023/03/26 08:55:46;;;;;;;12.43;6.85;;;;;;;;;;5033406;28;20199;-60
2023/03/26 08:58:24;;;;;;;28.35;11.88;;;;;;;;;;5031039;28;20700;-58
2023/03/26 09:01:00;;;;;;;11.40;6.43;;;;;;;;;;5030116;28;20679;-59
2023/03/26 09:03:47;;;;;;;7.18;5.18;;;;;;;;;;5032581;28;20212;-59
2023/03/26 09:06:26;;;;;;;13.05;7.63;;;;;;;;;;5002760;28;20209;-59
2023/03/26 09:09:03;;;;;;;11.23;5.97;;;;;;;;;;5033370;28;20209;-60
2023/03/26 09:11:55;;;;;;;14.40;7.72;;;;;;;;;;5015376;28;20205;-59
2023/03/26 09:14:38;;;;;;;15.93;7.15;;;;;;;;;;5032089;28;20243;-61
2023/03/26 09:17:30;;;;;;;18.92;8.57;;;;;;;;;;5031298;28;20188;-59
2023/03/26 09:20:09;;;;;;;21.90;8.80;;;;;;;;;;5014635;28;20692;-60
2023/03/26 09:22:55;;;;;;;9.52;6.55;;;;;;;;;;5029396;28;20204;-60
2023/03/26 09:26:04;;;;;;;10.23;6.53;;;;;;;;;;5020952;28;20229;-60
2023/03/26 09:28:35;;;;;;;7.05;5.28;;;;;;;;;;5028200;28;20220;-60
2023/03/26 09:31:09;;;;;;;6.10;4.82;;;;;;;;;;5029951;28;20232;-60
2023/03/26 09:34:03;;;;;;;5.13;3.42;;;;;;;;;;5030134;28;20235;-59
2023/03/26 09:36:49;;;;;;;3.03;2.72;;;;;;;;;;5031211;28;20755;-59
2023/03/26 09:39:44;;;;;;;23.08;7.22;;;;;;;;;;5034224;28;20228;-58
2023/03/26 09:42:39;;;;;;;23.45;7.10;;;;;;;;;;5017548;28;20709;-59
2023/03/26 09:45:28;;;;;;;24.27;6.75;;;;;;;;;;5034904;28;20228;-59
2023/03/26 09:48:31;;;;;;;17.65;6.10;;;;;;;;;;5034742;28;20216;-60
2023/03/26 09:51:36;;;;;;;6.95;4.05;;;;;;;;;;4985346;28;20271;-60
2023/03/26 09:54:12;;;;;;;14.23;4.93;;;;;;;;;;5010638;28;20224;-61
2023/03/26 09:57:03;;;;;;;26.67;12.75;;;;;;;;;;5016800;28;20228;-60
2023/03/26 09:59:49;;;;;;;21.95;11.98;;;;;;;;;;5034666;28;20591;-60
2023/03/26 10:02:33;;;;;;;19.92;9.25;;;;;;;;;;5034033;28;20578;-59
2023/03/26 10:05:40;;;;;;;10.90;4.57;;;;;;;;;;5016425;28;20213;-57
2023/03/26 10:08:19;;;;;;;5.75;3.15;;;;;;;;;;5032075;28;20216;-59
2023/03/26 10:10:59;;;;;;;4.20;2.72;;;;;;;;;;5034390;28;20225;-58
2023/03/26 10:13:50;;;;;;;6.35;3.38;;;;;;;;;;5034164;28;20688;-58
2023/03/26 10:16:30;;;;;;;5.25;3.58;;;;;;;;;;5033817;28;20240;-58
2023/03/26 10:19:06;;;;;;;22.45;11.80;;;;;;;;;;5014890;28;20271;-58
2023/03/26 10:22:08;;;;;;;5.00;3.28;;;;;;;;;;5013899;28;20259;-59
2023/03/26 10:24:56;;;;;;;4.75;2.78;;;;;;;;;;5033057;28;20294;-59
2023/03/26 10:27:39;;;;;;;3.22;2.30;;;;;;;;;;5030976;28;20231;-59
2023/03/26 10:30:15;;;;;;;4.32;2.80;;;;;;;;;;5016033;28;20240;-60
2023/03/26 10:33:07;;;;;;;11.98;4.63;;;;;;;;;;5030764;28;20256;-59
2023/03/26 10:35:50;;;;;;;9.38;3.33;;;;;;;;;;5047546;28;20228;-59
2023/03/26 10:38:27;;;;;;;15.23;5.28;;;;;;;;;;5014715;28;20220;-60
2023/03/26 10:40:54;;;;;;;6.53;2.55;;;;;;;;;;5032413;28;20229;-58
2023/03/26 10:43:39;;;;;;;4.30;2.33;;;;;;;;;;5032748;28;20244;-60
2023/03/26 10:46:23;;;;;;;3.20;2.00;;;;;;;;;;5031013;28;20570;-59
2023/03/26 10:49:27;;;;;;;2.47;1.83;;;;;;;;;;5013758;28;20584;-61
2023/03/26 10:51:57;;;;;;;3.22;2.28;;;;;;;;;;5032000;28;20271;-60
2023/03/26 10:54:50;;;;;;;3.13;2.30;;;;;;;;;;5014881;28;20224;-61
2023/03/26 10:57:52;;;;;;;3.40;2.60;;;;;;;;;;5046826;28;20243;-59
2023/03/26 11:00:25;;;;;;;4.93;3.78;;;;;;;;;;4985903;28;20728;-59
2023/03/26 11:03:21;;;;;;;4.88;3.42;;;;;;;;;;5031537;28;20308;-60
2023/03/26 11:06:24;;;;;;;4.07;3.17;;;;;;;;;;5030530;28;20221;-61
2023/03/26 11:09:11;;;;;;;6.97;3.17;;;;;;;;;;5018299;28;20307;-61
2023/03/26 11:11:46;;;;;;;3.70;2.65;;;;;;;;;;5027083;28;20294;-60
2023/03/26 11:14:29;;;;;;;5.82;3.45;;;;;;;;;;5013739;28;20251;-57
2023/03/26 11:17:23;;;;;;;5.07;2.97;;;;;;;;;;5015683;28;20216;-60
2023/03/26 11:20:30;;;;;;;7.28;3.50;;;;;;;;;;5031589;28;20215;-61
2023/03/26 11:23:20;;;;;;;5.13;3.30;;;;;;;;;;5028228;28;20934;-60
2023/03/26 11:25:56;;;;;;;4.60;3.47;;;;;;;;;;5030067;28;20237;-60
2023/03/26 11:28:37;;;;;;;4.53;2.83;;;;;;;;;;5044811;28;20224;-60
2023/03/26 11:31:23;;;;;;;4.18;3.00;;;;;;;;;;5031965;28;20224;-59
2023/03/26 11:33:57;;;;;;;3.95;3.25;;;;;;;;;;5041926;28;20236;-60
2023/03/26 11:36:29;;;;;;;4.43;2.83;;;;;;;;;;5010407;28;20717;-60
2023/03/26 11:38:59;;;;;;;26.98;13.65;;;;;;;;;;5031537;28;20693;-60
2023/03/26 11:41:30;;;;;;;4.80;3.10;;;;;;;;;;5029377;28;20229;-58
2023/03/26 11:44:31;;;;;;;5.90;3.28;;;;;;;;;;5021857;28;20232;-59
2023/03/26 11:47:03;;;;;;;4.78;2.70;;;;;;;;;;5013752;28;20323;-59
2023/03/26 11:49:31;;;;;;;2.72;2.20;;;;;;;;;;5030452;28;20303;-59
2023/03/26 11:51:59;;;;;;;5.55;3.08;;;;;;;;;;5027423;28;20609;-60
2023/03/26 11:54:27;;;;;;;5.28;3.00;;;;;;;;;;5031198;28;20239;-60
2023/03/26 11:57:34;;;;;;;3.42;2.08;;;;;;;;;;5011434;28;20596;-61
2023/03/26 12:00:18;;;;;;;4.72;3.20;;;;;;;;;;5028630;28;20295;-60
2023/03/26 12:02:47;;;;;;;2.95;1.85;;;;;;;;;;5014612;28;20220;-60
2023/03/26 12:05:14;;;;;;;2.97;1.77;;;;;;;;;;5028354;28;20647;-59
2023/03/26 12:07:59;;;;;;;2.63;1.70;;;;;;;;;;5031012;28;20220;-61
2023/03/26 12:10:33;;;;;;;2.05;1.20;;;;;;;;;;5030174;28;20311;-59
2023/03/26 12:13:20;;;;;;;4.18;2.00;;;;;;;;;;5013740;28;20215;-59
2023/03/26 12:15:48;;;;;;;2.95;1.60;;;;;;;;;;4997216;28;20232;-60
2023/03/26 12:18:27;;;;;;;2.72;1.45;;;;;;;;;;5032083;28;20233;-58
2023/03/26 12:21:03;;;;;;;5.15;3.47;;;;;;;;;;5033033;28;20234;-60
2023/03/26 12:23:59;;;;;;;0.82;0.82;;;;;;;;;;5031333;28;20255;-60
2023/03/26 12:26:38;;;;;;;1.83;1.23;;;;;;;;;;5031175;28;20219;-59
2023/03/26 12:29:16;;;;;;;1.05;0.95;;;;;;;;;;5032330;28;20261;-60
2023/03/26 12:31:54;;;;;;;2.08;1.40;;;;;;;;;;5032715;28;20232;-60
2023/03/26 12:34:33;;;;;;;3.40;2.28;;;;;;;;;;5032437;28;20319;-60
2023/03/26 12:37:03;;;;;;;2.80;2.00;;;;;;;;;;5032126;28;20254;-60
2023/03/26 12:39:37;;;;;;;8.13;4.10;;;;;;;;;;5030547;28;20229;-60
2023/03/26 12:42:30;;;;;;;3.80;2.10;;;;;;;;;;5032100;28;20224;-59
2023/03/26 12:45:29;;;;;;;2.75;2.08;;;;;;;;;;5012816;28;20213;-60
2023/03/26 12:47:59;;;;;;;3.22;2.47;;;;;;;;;;5031960;28;20696;-60
2023/03/26 12:50:55;;;;;;;3.25;2.35;;;;;;;;;;5014415;28;20624;-59
2023/03/26 12:53:32;;;;;;;2.80;1.95;;;;;;;;;;5014091;28;20227;-60
2023/03/26 12:56:07;;;;;;;3.92;2.20;;;;;;;;;;5019820;28;20236;-60
2023/03/26 12:58:53;;;;;;;5.65;4.03;;;;;;;;;;5023379;28;20212;-59
2023/03/26 13:01:37;;;;;;;4.43;2.65;;;;;;;;;;5032167;28;20229;-60
2023/03/26 13:04:12;;;;;;;4.05;2.50;;;;;;;;;;5008933;28;20271;-60
2023/03/26 13:06:52;;;;;;;4.63;2.40;;;;;;;;;;5031300;28;20224;-60
2023/03/26 13:09:36;;;;;;;3.00;2.55;;;;;;;;;;5045061;28;20225;-60
2023/03/26 13:12:03;;;;;;;3.92;2.42;;;;;;;;;;5034885;28;20225;-59
2023/03/26 13:14:57;;;;;;;2.95;2.15;;;;;;;;;;5034533;28;20252;-59
2023/03/26 13:17:30;;;;;;;7.85;4.00;;;;;;;;;;4993649;28;20621;-60
2023/03/26 13:20:13;;;;;;;3.35;2.67;;;;;;;;;;4993774;28;20226;-59
2023/03/26 13:22:56;;;;;;;2.35;1.80;;;;;;;;;;4988173;28;20222;-59
2023/03/26 13:25:31;;;;;;;1.83;1.58;;;;;;;;;;4994045;28;20592;-60
2023/03/26 13:28:03;;;;;;;4.80;1.40;;;;;;;;;;4994275;28;20225;-60
2023/03/26 13:30:40;;;;;;;2.28;1.30;;;;;;;;;;4992587;28;20222;-60
2023/03/26 13:33:33;;;;;;;3.83;2.03;;;;;;;;;;4988177;28;20698;-58
2023/03/26 13:36:20;;;;;;;3.33;1.70;;;;;;;;;;5000500;28;20757;-58
2023/03/26 13:38:56;;;;;;;19.73;9.10;;;;;;;;;;4987659;28;20255;-59
2023/03/26 13:41:35;;;;;;;3.05;1.50;;;;;;;;;;5003082;28;20217;-58
2023/03/26 13:44:11;;;;;;;3.08;1.70;;;;;;;;;;4986533;28;20244;-59
2023/03/26 13:46:45;;;;;;;2.25;1.40;;;;;;;;;;5000351;28;20221;-58
2023/03/26 13:49:14;;;;;;;1.45;1.15;;;;;;;;;;4994824;28;20647;-58
2023/03/26 13:51:57;;;;;;;3.25;1.48;;;;;;;;;;5002849;28;20612;-60
2023/03/26 13:54:29;;;;;;;11.05;3.65;;;;;;;;;;5010688;28;20672;-59
2023/03/26 13:57:36;;;;;;;9.10;2.78;;;;;;;;;;5032124;28;20216;-59
2023/03/26 14:00:11;;;;;;;12.20;6.15;;;;;;;;;;4952648;29;20227;-59
2023/03/26 14:02:41;;;;;;;5.35;2.67;;;;;;;;;;4951482;29;20226;-59
2023/03/26 14:05:21;;;;;;;5.00;2.25;;;;;;;;;;4953112;29;20235;-59
2023/03/26 14:08:00;;;;;;;2.05;1.30;;;;;;;;;;4953061;29;20711;-59
2023/03/26 14:10:35;;;;;;;1.20;1.10;;;;;;;;;;4950524;29;20235;-58
2023/03/26 14:13:26;;;;;;;7.47;3.00;;;;;;;;;;4937517;29;20246;-59
2023/03/26 14:16:22;;;;;;;8.27;3.03;;;;;;;;;;4947107;29;20235;-58
2023/03/26 14:19:10;;;;;;;18.73;9.45;;;;;;;;;;4952318;28;20234;-60
2023/03/26 14:22:08;;;;;;;5.60;3.75;;;;;;;;;;4952261;28;20226;-58
2023/03/26 14:25:02;;;;;;;6.00;2.30;;;;;;;;;;4952370;29;20223;-58
2023/03/26 14:28:04;;;;;;;15.90;4.43;;;;;;;;;;4933814;29;20607;-59
2023/03/26 14:30:47;;;;;;;3.25;1.50;;;;;;;;;;4950613;29;20329;-57
2023/03/26 14:33:33;;;;;;;10.85;3.80;;;;;;;;;;4951072;29;20227;-60
2023/03/26 14:36:42;;;;;;;11.25;3.50;;;;;;;;;;5004174;28;20232;-59
2023/03/26 14:39:34;;;;;;;7.10;4.32;;;;;;;;;;5030925;28;20307;-60
2023/03/26 14:42:07;;;;;;;7.45;4.75;;;;;;;;;;5032642;28;20846;-58
2023/03/26 14:44:47;;;;;;;4.50;2.33;;;;;;;;;;5014673;28;20224;-58
2023/03/26 14:47:20;;;;;;;6.70;2.60;;;;;;;;;;5031436;28;20286;-58
2023/03/26 14:50:19;;;;;;;6.80;2.17;;;;;;;;;;5032245;28;20319;-58
2023/03/26 14:52:52;;;;;;;7.65;2.92;;;;;;;;;;5045439;28;20752;-59
2023/03/26 14:55:58;;;;;;;5.78;2.40;;;;;;;;;;5029949;28;20717;-58
2023/03/26 14:58:50;;;;;;;59.00;27.00;;;;;;;;;;5030323;28;20682;-58
2023/03/26 15:01:23;;;;;;;13.63;5.70;;;;;;;;;;5030924;28;20216;-57
2023/03/26 15:04:08;;;;;;;4.45;2.67;;;;;;;;;;5032850;28;20221;-57
2023/03/26 15:06:57;;;;;;;5.55;3.53;;;;;;;;;;5028699;28;20244;-60
2023/03/26 15:09:55;;;;;;;2.72;1.83;;;;;;;;;;5029925;28;20565;-58
2023/03/26 15:12:32;;;;;;;2.50;1.80;;;;;;;;;;5030038;28;20217;-62
2023/03/26 15:15:47;;;;;;;2.22;1.75;;;;;;;;;;5027584;28;20235;-57
2023/03/26 15:18:26;;;;;;;42.88;18.73;;;;;;;;;;5029993;28;20239;-58
2023/03/26 15:21:33;;;;;;;3.92;2.40;;;;;;;;;;5030080;28;20747;-58
2023/03/26 15:24:22;;;;;;;3.90;1.80;;;;;;;;;;5031797;28;20319;-57
2023/03/26 15:27:26;;;;;;;2.22;1.65;;;;;;;;;;5030029;28;20243;-59
2023/03/26 15:30:09;;;;;;;4.03;1.90;;;;;;;;;;5029283;28;20231;-59
2023/03/26 15:32:43;;;;;;;5.47;2.60;;;;;;;;;;5027345;28;20221;-58
2023/03/26 15:35:38;;;;;;;6.28;2.38;;;;;;;;;;5032058;28;20232;-60
2023/03/26 15:38:30;;;;;;;4.53;1.55;;;;;;;;;;5033475;28;20220;-60
2023/03/26 15:41:17;;;;;;;1.67;1.08;;;;;;;;;;5032329;28;20217;-59
2023/03/26 15:43:56;;;;;;;3.30;1.92;;;;;;;;;;5015509;28;20283;-60
2023/03/26 15:46:56;;;;;;;4.32;2.10;;;;;;;;;;5032444;28;20252;-59
2023/03/26 15:49:46;;;;;;;3.95;1.58;;;;;;;;;;5032025;28;20267;-59